sensor_id;sensor_type;location;lat;lon;timestamp;P1;durP1;ratioP1;P2;durP2;ratioP2
38879;SDS011;25887;30.194;-97.880;2023-04-25T00:00:28;2.33;;;1.58;;
38879;SDS011;25887;30.194;-97.880;2023-04-25T00:02:54;2.88;;;1.50;;
38879;SDS011;25887;30.194;-97.880;2023-04-25T00:05:24;5.60;;;1.48;;
38879;SDS011;25887;30.194;-97.880;2023-04-25T00:07:51;2.78;;;1.75;;
38879;SDS011;25887;30.194;-97.880;2023-04-25T00:10:18;3.22;;;1.60;;
38879;SDS011;25887;30.194;-97.880;2023-04-25T00:12:45;3.55;;;1.40;;
38879;SDS011;25887;30.194;-97.880;2023-04-25T00:15:11;2.00;;;1.40;;
38879;SDS011;25887;30.194;-97.880;2023-04-25T00:17:38;4.63;;;1.58;;
38879;SDS011;25887;30.194;-97.880;2023-04-25T00:20:04;4.22;;;1.50;;
38879;SDS011;25887;30.194;-97.880;2023-04-25T00:22:34;2.25;;;1.60;;
38879;SDS011;25887;30.194;-97.880;2023-04-25T00:25:03;2.72;;;1.55;;
38879;SDS011;25887;30.194;-97.880;2023-04-25T00:27:30;2.30;;;1.30;;
38879;SDS011;25887;30.194;-97.880;2023-04-25T00:29:56;2.92;;;1.70;;
38879;SDS011;25887;30.194;-97.880;2023-04-25T00:32:22;4.15;;;1.73;;
38879;SDS011;25887;30.194;-97.880;2023-04-25T00:34:48;4.95;;;1.50;;
38879;SDS011;25887;30.194;-97.880;2023-04-25T00:37:15;1.77;;;1.48;;
38879;SDS011;25887;30.194;-97.880;2023-04-25T00:39:41;3.95;;;1.40;;
38879;SDS011;25887;30.194;-97.880;2023-04-25T00:42:09;4.65;;;1.30;;
38879;SDS011;25887;30.194;-97.880;2023-04-25T00:44:36;1.42;;;1.30;;
38879;SDS011;25887;30.194;-97.880;2023-04-25T00:47:03;2.83;;;1.60;;
38879;SDS011;25887;30.194;-97.880;2023-04-25T00:49:30;3.53;;;1.55;;
38879;SDS011;25887;30.194;-97.880;2023-04-25T00:51:56;4.28;;;1.55;;
38879;SDS011;25887;30.194;-97.880;2023-04-25T00:54:22;3.53;;;1.42;;
38879;SDS011;25887;30.194;-97.880;2023-04-25T00:56:48;2.67;;;1.50;;
38879;SDS011;25887;30.194;-97.880;2023-04-25T00:59:15;6.20;;;1.90;;
38879;SDS011;25887;30.194;-97.880;2023-04-25T01:01:41;3.10;;;1.52;;
38879;SDS011;25887;30.194;-97.880;2023-04-25T01:04:09;4.22;;;1.38;;
38879;SDS011;25887;30.194;-97.880;2023-04-25T01:06:37;2.95;;;1.85;;
38879;SDS011;25887;30.194;-97.880;2023-04-25T01:09:04;3.75;;;1.40;;
38879;SDS011;25887;30.194;-97.880;2023-04-25T01:11:30;2.95;;;1.55;;
38879;SDS011;25887;30.194;-97.880;2023-04-25T01:13:57;2.42;;;1.45;;
38879;SDS011;25887;30.194;-97.880;2023-04-25T01:16:23;3.60;;;1.55;;
38879;SDS011;25887;30.194;-97.880;2023-04-25T01:18:50;6.28;;;1.63;;
38879;SDS011;25887;30.194;-97.880;2023-04-25T01:21:17;4.97;;;1.50;;
38879;SDS011;25887;30.194;-97.880;2023-04-25T01:23:43;3.67;;;1.38;;
38879;SDS011;25887;30.194;-97.880;2023-04-25T01:26:10;3.30;;;2.20;;
38879;SDS011;25887;30.194;-97.880;2023-04-25T01:28:39;3.55;;;1.60;;
38879;SDS011;25887;30.194;-97.880;2023-04-25T01:31:11;1.80;;;1.42;;
38879;SDS011;25887;30.194;-97.880;2023-04-25T01:33:37;2.30;;;1.52;;
38879;SDS011;25887;30.194;-97.880;2023-04-25T01:36:03;3.97;;;1.83;;
38879;SDS011;25887;30.194;-97.880;2023-04-25T01:38:30;3.50;;;1.52;;
38879;SDS011;25887;30.194;-97.880;2023-04-25T01:40:58;2.28;;;1.23;;
38879;SDS011;25887;30.194;-97.880;2023-04-25T01:43:24;2.50;;;1.55;;
38879;SDS011;25887;30.194;-97.880;2023-04-25T01:45:51;4.47;;;1.90;;
38879;SDS011;25887;30.194;-97.880;2023-04-25T01:48:18;6.18;;;1.20;;
38879;SDS011;25887;30.194;-97.880;2023-04-25T01:50:44;2.42;;;1.52;;
38879;SDS011;25887;30.194;-97.880;2023-04-25T01:53:11;3.20;;;1.65;;
38879;SDS011;25887;30.194;-97.880;2023-04-25T01:55:39;13.73;;;1.83;;
38879;SDS011;25887;30.194;-97.880;2023-04-25T01:58:06;5.05;;;1.75;;
38879;SDS011;25887;30.194;-97.880;2023-04-25T02:00:35;4.60;;;1.90;;
38879;SDS011;25887;30.194;-97.880;2023-04-25T02:03:06;4.90;;;1.83;;
38879;SDS011;25887;30.194;-97.880;2023-04-25T02:05:35;8.05;;;1.80;;
38879;SDS011;25887;30.194;-97.880;2023-04-25T02:08:02;2.60;;;1.50;;
38879;SDS011;25887;30.194;-97.880;2023-04-25T02:10:33;2.08;;;1.42;;
38879;SDS011;25887;30.194;-97.880;2023-04-25T02:13:00;2.10;;;1.58;;
38879;SDS011;25887;30.194;-97.880;2023-04-25T02:15:26;6.43;;;1.70;;
38879;SDS011;25887;30.194;-97.880;2023-04-25T02:17:52;3.38;;;1.58;;
38879;SDS011;25887;30.194;-97.880;2023-04-25T02:20:22;6.07;;;1.85;;
38879;SDS011;25887;30.194;-97.880;2023-04-25T02:22:49;4.88;;;1.85;;
38879;SDS011;25887;30.194;-97.880;2023-04-25T02:25:17;4.03;;;2.08;;
38879;SDS011;25887;30.194;-97.880;2023-04-25T02:27:45;3.83;;;1.80;;
38879;SDS011;25887;30.194;-97.880;2023-04-25T02:30:12;1.92;;;1.50;;
38879;SDS011;25887;30.194;-97.880;2023-04-25T02:32:39;5.80;;;1.65;;
38879;SDS011;25887;30.194;-97.880;2023-04-25T02:35:06;4.55;;;1.70;;
38879;SDS011;25887;30.194;-97.880;2023-04-25T02:37:33;3.72;;;1.83;;
38879;SDS011;25887;30.194;-97.880;2023-04-25T02:40:00;3.08;;;1.42;;
38879;SDS011;25887;30.194;-97.880;2023-04-25T02:42:28;2.50;;;1.63;;
38879;SDS011;25887;30.194;-97.880;2023-04-25T02:44:54;6.65;;;1.77;;
38879;SDS011;25887;30.194;-97.880;2023-04-25T02:47:21;3.55;;;1.77;;
38879;SDS011;25887;30.194;-97.880;2023-04-25T02:49:47;2.90;;;1.55;;
38879;SDS011;25887;30.194;-97.880;2023-04-25T02:52:14;3.13;;;1.70;;
38879;SDS011;25887;30.194;-97.880;2023-04-25T02:54:40;4.95;;;2.13;;
38879;SDS011;25887;30.194;-97.880;2023-04-25T02:57:06;2.25;;;1.60;;
38879;SDS011;25887;30.194;-97.880;2023-04-25T02:59:33;3.00;;;1.75;;
38879;SDS011;25887;30.194;-97.880;2023-04-25T03:01:59;3.55;;;1.70;;
38879;SDS011;25887;30.194;-97.880;2023-04-25T03:04:28;2.45;;;1.45;;
38879;SDS011;25887;30.194;-97.880;2023-04-25T03:06:54;2.67;;;1.63;;
38879;SDS011;25887;30.194;-97.880;2023-04-25T03:09:20;3.05;;;1.60;;
38879;SDS011;25887;30.194;-97.880;2023-04-25T03:11:49;4.38;;;1.88;;
38879;SDS011;25887;30.194;-97.880;2023-04-25T03:14:15;4.57;;;2.00;;
38879;SDS011;25887;30.194;-97.880;2023-04-25T03:16:41;3.28;;;2.00;;
38879;SDS011;25887;30.194;-97.880;2023-04-25T03:19:08;1.88;;;1.63;;
38879;SDS011;25887;30.194;-97.880;2023-04-25T03:21:34;4.88;;;2.33;;
38879;SDS011;25887;30.194;-97.880;2023-04-25T03:24:02;3.72;;;1.77;;
38879;SDS011;25887;30.194;-97.880;2023-04-25T03:26:29;5.68;;;1.90;;
38879;SDS011;25887;30.194;-97.880;2023-04-25T03:28:55;1.75;;;1.50;;
38879;SDS011;25887;30.194;-97.880;2023-04-25T03:31:22;3.08;;;1.90;;
38879;SDS011;25887;30.194;-97.880;2023-04-25T03:33:48;4.75;;;1.63;;
38879;SDS011;25887;30.194;-97.880;2023-04-25T03:36:14;3.03;;;1.88;;
38879;SDS011;25887;30.194;-97.880;2023-04-25T03:38:40;4.55;;;1.73;;
38879;SDS011;25887;30.194;-97.880;2023-04-25T03:41:07;2.70;;;1.83;;
38879;SDS011;25887;30.194;-97.880;2023-04-25T03:43:33;4.75;;;2.33;;
38879;SDS011;25887;30.194;-97.880;2023-04-25T03:46:00;2.30;;;1.70;;
38879;SDS011;25887;30.194;-97.880;2023-04-25T03:48:27;4.68;;;1.98;;
38879;SDS011;25887;30.194;-97.880;2023-04-25T03:50:53;2.38;;;1.67;;
38879;SDS011;25887;30.194;-97.880;2023-04-25T03:53:20;5.18;;;1.70;;
38879;SDS011;25887;30.194;-97.880;2023-04-25T03:55:46;2.67;;;1.98;;
38879;SDS011;25887;30.194;-97.880;2023-04-25T03:58:12;3.80;;;2.10;;
38879;SDS011;25887;30.194;-97.880;2023-04-25T04:00:38;3.15;;;1.60;;
38879;SDS011;25887;30.194;-97.880;2023-04-25T04:03:05;4.15;;;2.10;;
38879;SDS011;25887;30.194;-97.880;2023-04-25T04:05:31;4.28;;;1.80;;
38879;SDS011;25887;30.194;-97.880;2023-04-25T04:07:59;5.15;;;2.30;;
38879;SDS011;25887;30.194;-97.880;2023-04-25T04:10:25;3.78;;;1.83;;
38879;SDS011;25887;30.194;-97.880;2023-04-25T04:12:51;3.50;;;1.85;;
38879;SDS011;25887;30.194;-97.880;2023-04-25T04:15:18;4.38;;;2.08;;
38879;SDS011;25887;30.194;-97.880;2023-04-25T04:17:44;3.70;;;2.00;;
38879;SDS011;25887;30.194;-97.880;2023-04-25T04:20:12;4.10;;;1.90;;
38879;SDS011;25887;30.194;-97.880;2023-04-25T04:22:38;2.88;;;2.20;;
38879;SDS011;25887;30.194;-97.880;2023-04-25T04:25:04;3.03;;;1.73;;
38879;SDS011;25887;30.194;-97.880;2023-04-25T04:27:31;6.72;;;2.70;;
38879;SDS011;25887;30.194;-97.880;2023-04-25T04:29:57;3.42;;;2.00;;
38879;SDS011;25887;30.194;-97.880;2023-04-25T04:32:24;2.25;;;1.83;;
38879;SDS011;25887;30.194;-97.880;2023-04-25T04:34:50;3.22;;;2.15;;
38879;SDS011;25887;30.194;-97.880;2023-04-25T04:37:17;3.83;;;2.22;;
38879;SDS011;25887;30.194;-97.880;2023-04-25T04:39:43;3.47;;;2.20;;
38879;SDS011;25887;30.194;-97.880;2023-04-25T04:42:10;4.88;;;2.50;;
38879;SDS011;25887;30.194;-97.880;2023-04-25T04:44:38;5.95;;;3.05;;
38879;SDS011;25887;30.194;-97.880;2023-04-25T04:47:04;2.75;;;2.10;;
38879;SDS011;25887;30.194;-97.880;2023-04-25T04:49:31;6.07;;;2.50;;
38879;SDS011;25887;30.194;-97.880;2023-04-25T04:51:58;3.85;;;2.50;;
38879;SDS011;25887;30.194;-97.880;2023-04-25T04:54:25;3.88;;;2.50;;
38879;SDS011;25887;30.194;-97.880;2023-04-25T04:56:52;3.55;;;2.55;;
38879;SDS011;25887;30.194;-97.880;2023-04-25T04:59:18;5.35;;;2.97;;
38879;SDS011;25887;30.194;-97.880;2023-04-25T05:01:44;3.88;;;2.70;;
38879;SDS011;25887;30.194;-97.880;2023-04-25T05:04:12;5.15;;;3.17;;
38879;SDS011;25887;30.194;-97.880;2023-04-25T05:06:39;4.07;;;3.17;;
38879;SDS011;25887;30.194;-97.880;2023-04-25T05:09:05;5.63;;;2.80;;
38879;SDS011;25887;30.194;-97.880;2023-04-25T05:11:32;4.38;;;2.67;;
38879;SDS011;25887;30.194;-97.880;2023-04-25T05:13:58;6.20;;;2.67;;
38879;SDS011;25887;30.194;-97.880;2023-04-25T05:16:24;7.40;;;3.38;;
38879;SDS011;25887;30.194;-97.880;2023-04-25T05:18:50;5.25;;;2.90;;
38879;SDS011;25887;30.194;-97.880;2023-04-25T05:21:16;6.28;;;3.10;;
38879;SDS011;25887;30.194;-97.880;2023-04-25T05:23:43;3.97;;;2.92;;
38879;SDS011;25887;30.194;-97.880;2023-04-25T05:26:09;5.53;;;2.95;;
38879;SDS011;25887;30.194;-97.880;2023-04-25T05:28:41;6.47;;;2.60;;
38879;SDS011;25887;30.194;-97.880;2023-04-25T05:31:11;6.30;;;2.65;;
38879;SDS011;25887;30.194;-97.880;2023-04-25T05:33:37;4.55;;;2.70;;
38879;SDS011;25887;30.194;-97.880;2023-04-25T05:36:03;6.25;;;2.67;;
38879;SDS011;25887;30.194;-97.880;2023-04-25T05:38:30;4.38;;;3.28;;
38879;SDS011;25887;30.194;-97.880;2023-04-25T05:40:56;4.30;;;2.92;;
38879;SDS011;25887;30.194;-97.880;2023-04-25T05:43:22;4.97;;;3.20;;
38879;SDS011;25887;30.194;-97.880;2023-04-25T05:45:48;4.80;;;3.10;;
38879;SDS011;25887;30.194;-97.880;2023-04-25T05:48:14;5.53;;;2.78;;
38879;SDS011;25887;30.194;-97.880;2023-04-25T05:50:40;8.68;;;3.42;;
38879;SDS011;25887;30.194;-97.880;2023-04-25T05:53:07;4.32;;;2.63;;
38879;SDS011;25887;30.194;-97.880;2023-04-25T05:55:34;6.97;;;2.85;;
38879;SDS011;25887;30.194;-97.880;2023-04-25T05:58:00;4.60;;;2.92;;
38879;SDS011;25887;30.194;-97.880;2023-04-25T06:00:26;5.30;;;2.95;;
38879;SDS011;25887;30.194;-97.880;2023-04-25T06:02:53;5.60;;;2.75;;
38879;SDS011;25887;30.194;-97.880;2023-04-25T06:05:19;4.30;;;3.00;;
38879;SDS011;25887;30.194;-97.880;2023-04-25T06:07:46;4.88;;;2.95;;
38879;SDS011;25887;30.194;-97.880;2023-04-25T06:10:12;5.32;;;2.90;;
38879;SDS011;25887;30.194;-97.880;2023-04-25T06:12:38;7.10;;;2.97;;
38879;SDS011;25887;30.194;-97.880;2023-04-25T06:15:05;4.97;;;2.72;;
38879;SDS011;25887;30.194;-97.880;2023-04-25T06:17:32;5.43;;;2.85;;
38879;SDS011;25887;30.194;-97.880;2023-04-25T06:19:59;4.30;;;2.63;;
38879;SDS011;25887;30.194;-97.880;2023-04-25T06:22:25;6.80;;;2.72;;
38879;SDS011;25887;30.194;-97.880;2023-04-25T06:24:51;5.28;;;3.25;;
38879;SDS011;25887;30.194;-97.880;2023-04-25T06:27:17;6.50;;;2.90;;
38879;SDS011;25887;30.194;-97.880;2023-04-25T06:29:43;6.38;;;3.30;;
38879;SDS011;25887;30.194;-97.880;2023-04-25T06:32:09;6.65;;;2.80;;
38879;SDS011;25887;30.194;-97.880;2023-04-25T06:34:36;6.93;;;2.92;;
38879;SDS011;25887;30.194;-97.880;2023-04-25T06:37:02;5.40;;;3.35;;
38879;SDS011;25887;30.194;-97.880;2023-04-25T06:39:28;5.55;;;2.85;;
38879;SDS011;25887;30.194;-97.880;2023-04-25T06:41:54;6.78;;;2.50;;
38879;SDS011;25887;30.194;-97.880;2023-04-25T06:44:20;6.40;;;3.17;;
38879;SDS011;25887;30.194;-97.880;2023-04-25T06:46:49;6.57;;;2.75;;
38879;SDS011;25887;30.194;-97.880;2023-04-25T06:49:15;5.60;;;3.00;;
38879;SDS011;25887;30.194;-97.880;2023-04-25T06:51:41;3.13;;;2.63;;
38879;SDS011;25887;30.194;-97.880;2023-04-25T06:54:07;4.20;;;3.08;;
38879;SDS011;25887;30.194;-97.880;2023-04-25T06:56:33;4.45;;;3.03;;
38879;SDS011;25887;30.194;-97.880;2023-04-25T06:59:00;8.05;;;3.70;;
38879;SDS011;25887;30.194;-97.880;2023-04-25T07:01:26;5.35;;;3.58;;
38879;SDS011;25887;30.194;-97.880;2023-04-25T07:03:52;4.47;;;2.92;;
38879;SDS011;25887;30.194;-97.880;2023-04-25T07:06:18;4.15;;;3.08;;
38879;SDS011;25887;30.194;-97.880;2023-04-25T07:08:44;4.95;;;3.08;;
38879;SDS011;25887;30.194;-97.880;2023-04-25T07:11:10;5.70;;;3.55;;
38879;SDS011;25887;30.194;-97.880;2023-04-25T07:13:37;6.97;;;3.10;;
38879;SDS011;25887;30.194;-97.880;2023-04-25T07:16:03;5.38;;;2.90;;
38879;SDS011;25887;30.194;-97.880;2023-04-25T07:18:30;7.68;;;3.33;;
38879;SDS011;25887;30.194;-97.880;2023-04-25T07:20:56;6.35;;;3.30;;
38879;SDS011;25887;30.194;-97.880;2023-04-25T07:23:22;5.85;;;3.20;;
38879;SDS011;25887;30.194;-97.880;2023-04-25T07:25:48;6.57;;;3.40;;
38879;SDS011;25887;30.194;-97.880;2023-04-25T07:28:14;5.50;;;3.17;;
38879;SDS011;25887;30.194;-97.880;2023-04-25T07:30:41;7.60;;;3.10;;
38879;SDS011;25887;30.194;-97.880;2023-04-25T07:33:07;7.13;;;3.63;;
38879;SDS011;25887;30.194;-97.880;2023-04-25T07:35:33;4.60;;;3.30;;
38879;SDS011;25887;30.194;-97.880;2023-04-25T07:37:59;7.60;;;3.53;;
38879;SDS011;25887;30.194;-97.880;2023-04-25T07:40:26;6.22;;;3.45;;
38879;SDS011;25887;30.194;-97.880;2023-04-25T07:42:53;5.53;;;3.42;;
38879;SDS011;25887;30.194;-97.880;2023-04-25T07:45:19;4.85;;;2.92;;
38879;SDS011;25887;30.194;-97.880;2023-04-25T07:47:45;5.65;;;3.17;;
38879;SDS011;25887;30.194;-97.880;2023-04-25T07:50:11;5.85;;;3.88;;
38879;SDS011;25887;30.194;-97.880;2023-04-25T07:52:38;5.40;;;3.15;;
38879;SDS011;25887;30.194;-97.880;2023-04-25T07:55:04;4.78;;;3.20;;
38879;SDS011;25887;30.194;-97.880;2023-04-25T07:57:30;11.45;;;3.55;;
38879;SDS011;25887;30.194;-97.880;2023-04-25T07:59:56;6.00;;;3.33;;
38879;SDS011;25887;30.194;-97.880;2023-04-25T08:02:23;5.35;;;2.80;;
38879;SDS011;25887;30.194;-97.880;2023-04-25T08:04:51;6.07;;;3.35;;
38879;SDS011;25887;30.194;-97.880;2023-04-25T08:07:17;7.55;;;3.35;;
38879;SDS011;25887;30.194;-97.880;2023-04-25T08:09:43;6.57;;;3.85;;
38879;SDS011;25887;30.194;-97.880;2023-04-25T08:12:10;8.02;;;3.38;;
38879;SDS011;25887;30.194;-97.880;2023-04-25T08:14:36;5.22;;;3.05;;
38879;SDS011;25887;30.194;-97.880;2023-04-25T08:17:04;7.72;;;3.58;;
38879;SDS011;25887;30.194;-97.880;2023-04-25T08:19:31;8.98;;;3.35;;
38879;SDS011;25887;30.194;-97.880;2023-04-25T08:21:57;6.40;;;3.70;;
38879;SDS011;25887;30.194;-97.880;2023-04-25T08:24:23;5.78;;;3.67;;
38879;SDS011;25887;30.194;-97.880;2023-04-25T08:26:51;11.20;;;3.78;;
38879;SDS011;25887;30.194;-97.880;2023-04-25T08:29:17;8.35;;;4.20;;
38879;SDS011;25887;30.194;-97.880;2023-04-25T08:31:43;9.50;;;3.97;;
38879;SDS011;25887;30.194;-97.880;2023-04-25T08:34:10;5.32;;;3.35;;
38879;SDS011;25887;30.194;-97.880;2023-04-25T08:36:36;4.97;;;3.60;;
38879;SDS011;25887;30.194;-97.880;2023-04-25T08:39:04;5.55;;;3.53;;
38879;SDS011;25887;30.194;-97.880;2023-04-25T08:41:33;5.65;;;3.70;;
38879;SDS011;25887;30.194;-97.880;2023-04-25T08:44:02;6.85;;;3.92;;
38879;SDS011;25887;30.194;-97.880;2023-04-25T08:46:29;7.05;;;4.05;;
38879;SDS011;25887;30.194;-97.880;2023-04-25T08:49:00;6.93;;;3.88;;
38879;SDS011;25887;30.194;-97.880;2023-04-25T08:51:27;7.90;;;4.20;;
38879;SDS011;25887;30.194;-97.880;2023-04-25T08:53:58;7.25;;;3.67;;
38879;SDS011;25887;30.194;-97.880;2023-04-25T08:56:38;8.27;;;3.92;;
38879;SDS011;25887;30.194;-97.880;2023-04-25T08:59:09;6.70;;;4.05;;
38879;SDS011;25887;30.194;-97.880;2023-04-25T09:01:37;8.23;;;4.55;;
38879;SDS011;25887;30.194;-97.880;2023-04-25T09:04:04;7.10;;;3.88;;
38879;SDS011;25887;30.194;-97.880;2023-04-25T09:06:31;8.35;;;4.30;;
38879;SDS011;25887;30.194;-97.880;2023-04-25T09:09:03;7.80;;;4.18;;
38879;SDS011;25887;30.194;-97.880;2023-04-25T09:11:31;10.43;;;4.40;;
38879;SDS011;25887;30.194;-97.880;2023-04-25T09:14:17;7.95;;;4.70;;
38879;SDS011;25887;30.194;-97.880;2023-04-25T09:19:23;7.70;;;3.80;;
38879;SDS011;25887;30.194;-97.880;2023-04-25T09:22:05;8.88;;;3.95;;
38879;SDS011;25887;30.194;-97.880;2023-04-25T09:24:44;7.75;;;3.83;;
38879;SDS011;25887;30.194;-97.880;2023-04-25T09:27:18;7.28;;;4.13;;
38879;SDS011;25887;30.194;-97.880;2023-04-25T09:34:52;7.65;;;4.30;;
38879;SDS011;25887;30.194;-97.880;2023-04-25T09:37:20;7.10;;;3.83;;
38879;SDS011;25887;30.194;-97.880;2023-04-25T09:39:57;7.25;;;4.18;;
38879;SDS011;25887;30.194;-97.880;2023-04-25T09:42:26;10.68;;;5.68;;
38879;SDS011;25887;30.194;-97.880;2023-04-25T09:44:54;6.75;;;4.13;;
38879;SDS011;25887;30.194;-97.880;2023-04-25T09:47:22;6.80;;;4.05;;
38879;SDS011;25887;30.194;-97.880;2023-04-25T09:49:53;11.77;;;4.93;;
38879;SDS011;25887;30.194;-97.880;2023-04-25T09:52:21;10.32;;;4.88;;
38879;SDS011;25887;30.194;-97.880;2023-04-25T09:54:49;7.57;;;4.55;;
38879;SDS011;25887;30.194;-97.880;2023-04-25T09:57:18;8.07;;;4.43;;
38879;SDS011;25887;30.194;-97.880;2023-04-25T09:59:53;10.60;;;4.30;;
38879;SDS011;25887;30.194;-97.880;2023-04-25T10:02:24;6.25;;;4.05;;
38879;SDS011;25887;30.194;-97.880;2023-04-25T10:04:52;7.32;;;5.20;;
38879;SDS011;25887;30.194;-97.880;2023-04-25T10:07:24;6.75;;;3.85;;
38879;SDS011;25887;30.194;-97.880;2023-04-25T10:10:04;10.25;;;4.10;;
38879;SDS011;25887;30.194;-97.880;2023-04-25T10:12:32;9.48;;;4.38;;
38879;SDS011;25887;30.194;-97.880;2023-04-25T10:15:02;8.15;;;4.50;;
38879;SDS011;25887;30.194;-97.880;2023-04-25T10:17:29;6.70;;;4.22;;
38879;SDS011;25887;30.194;-97.880;2023-04-25T10:19:58;6.95;;;4.30;;
38879;SDS011;25887;30.194;-97.880;2023-04-25T10:23:03;6.53;;;3.95;;
38879;SDS011;25887;30.194;-97.880;2023-04-25T10:25:24;6.35;;;3.50;;
38879;SDS011;25887;30.194;-97.880;2023-04-25T10:27:51;6.57;;;4.20;;
38879;SDS011;25887;30.194;-97.880;2023-04-25T10:30:18;7.65;;;4.10;;
38879;SDS011;25887;30.194;-97.880;2023-04-25T10:32:44;8.57;;;4.38;;
38879;SDS011;25887;30.194;-97.880;2023-04-25T10:40:24;7.28;;;3.90;;
38879;SDS011;25887;30.194;-97.880;2023-04-25T10:42:54;10.32;;;4.20;;
38879;SDS011;25887;30.194;-97.880;2023-04-25T10:45:21;9.63;;;4.25;;
38879;SDS011;25887;30.194;-97.880;2023-04-25T10:47:47;6.28;;;3.80;;
38879;SDS011;25887;30.194;-97.880;2023-04-25T10:50:16;7.40;;;4.38;;
38879;SDS011;25887;30.194;-97.880;2023-04-25T10:52:43;6.88;;;4.28;;
38879;SDS011;25887;30.194;-97.880;2023-04-25T10:55:12;9.30;;;4.25;;
38879;SDS011;25887;30.194;-97.880;2023-04-25T10:57:42;10.98;;;4.10;;
38879;SDS011;25887;30.194;-97.880;2023-04-25T11:00:15;6.68;;;3.42;;
38879;SDS011;25887;30.194;-97.880;2023-04-25T11:02:53;13.40;;;4.30;;
38879;SDS011;25887;30.194;-97.880;2023-04-25T11:05:29;6.57;;;3.70;;
38879;SDS011;25887;30.194;-97.880;2023-04-25T11:08:01;7.63;;;4.00;;
38879;SDS011;25887;30.194;-97.880;2023-04-25T11:10:29;11.18;;;4.85;;
38879;SDS011;25887;30.194;-97.880;2023-04-25T11:12:57;7.03;;;3.60;;
38879;SDS011;25887;30.194;-97.880;2023-04-25T11:15:24;12.05;;;4.05;;
38879;SDS011;25887;30.194;-97.880;2023-04-25T11:17:53;7.45;;;3.97;;
38879;SDS011;25887;30.194;-97.880;2023-04-25T11:20:21;6.88;;;4.35;;
38879;SDS011;25887;30.194;-97.880;2023-04-25T11:22:51;9.20;;;4.07;;
38879;SDS011;25887;30.194;-97.880;2023-04-25T11:25:17;8.55;;;4.53;;
38879;SDS011;25887;30.194;-97.880;2023-04-25T11:27:50;7.45;;;4.07;;
38879;SDS011;25887;30.194;-97.880;2023-04-25T11:30:17;7.70;;;4.45;;
38879;SDS011;25887;30.194;-97.880;2023-04-25T11:32:44;8.02;;;4.20;;
38879;SDS011;25887;30.194;-97.880;2023-04-25T11:35:11;10.07;;;4.53;;
38879;SDS011;25887;30.194;-97.880;2023-04-25T11:37:41;8.05;;;4.35;;
38879;SDS011;25887;30.194;-97.880;2023-04-25T11:40:09;8.68;;;4.22;;
38879;SDS011;25887;30.194;-97.880;2023-04-25T11:42:38;8.02;;;4.15;;
38879;SDS011;25887;30.194;-97.880;2023-04-25T11:45:08;8.27;;;4.95;;
38879;SDS011;25887;30.194;-97.880;2023-04-25T11:47:36;8.18;;;4.47;;
38879;SDS011;25887;30.194;-97.880;2023-04-25T11:50:03;7.82;;;3.42;;
38879;SDS011;25887;30.194;-97.880;2023-04-25T11:52:35;8.73;;;4.20;;
38879;SDS011;25887;30.194;-97.880;2023-04-25T11:55:12;8.50;;;4.25;;
38879;SDS011;25887;30.194;-97.880;2023-04-25T11:57:43;7.63;;;3.75;;
38879;SDS011;25887;30.194;-97.880;2023-04-25T12:00:14;8.43;;;3.55;;
38879;SDS011;25887;30.194;-97.880;2023-04-25T12:02:43;6.88;;;4.32;;
38879;SDS011;25887;30.194;-97.880;2023-04-25T12:05:10;6.75;;;4.18;;
38879;SDS011;25887;30.194;-97.880;2023-04-25T12:07:37;11.02;;;3.72;;
38879;SDS011;25887;30.194;-97.880;2023-04-25T12:10:04;10.82;;;4.10;;
38879;SDS011;25887;30.194;-97.880;2023-04-25T12:12:34;9.10;;;3.75;;
38879;SDS011;25887;30.194;-97.880;2023-04-25T12:15:08;9.70;;;3.28;;
38879;SDS011;25887;30.194;-97.880;2023-04-25T12:17:45;7.35;;;3.97;;
38879;SDS011;25887;30.194;-97.880;2023-04-25T12:20:15;9.10;;;4.00;;
38879;SDS011;25887;30.194;-97.880;2023-04-25T12:22:43;6.35;;;3.45;;
38879;SDS011;25887;30.194;-97.880;2023-04-25T12:28:09;9.48;;;3.95;;
38879;SDS011;25887;30.194;-97.880;2023-04-25T12:35:59;8.05;;;3.33;;
38879;SDS011;25887;30.194;-97.880;2023-04-25T12:38:38;6.55;;;3.13;;
38879;SDS011;25887;30.194;-97.880;2023-04-25T12:41:06;6.28;;;3.28;;
38879;SDS011;25887;30.194;-97.880;2023-04-25T12:43:32;8.23;;;3.42;;
38879;SDS011;25887;30.194;-97.880;2023-04-25T12:45:59;6.75;;;3.50;;
38879;SDS011;25887;30.194;-97.880;2023-04-25T12:48:25;5.03;;;3.35;;
38879;SDS011;25887;30.194;-97.880;2023-04-25T12:50:51;5.50;;;2.90;;
38879;SDS011;25887;30.194;-97.880;2023-04-25T12:53:21;8.98;;;3.65;;
38879;SDS011;25887;30.194;-97.880;2023-04-25T12:55:51;5.18;;;3.28;;
38879;SDS011;25887;30.194;-97.880;2023-04-25T12:58:18;6.93;;;3.45;;
38879;SDS011;25887;30.194;-97.880;2023-04-25T13:00:45;5.60;;;3.28;;
38879;SDS011;25887;30.194;-97.880;2023-04-25T13:03:12;6.60;;;2.97;;
38879;SDS011;25887;30.194;-97.880;2023-04-25T13:05:39;7.53;;;3.40;;
38879;SDS011;25887;30.194;-97.880;2023-04-25T13:08:05;4.00;;;2.65;;
38879;SDS011;25887;30.194;-97.880;2023-04-25T13:10:31;6.57;;;2.95;;
38879;SDS011;25887;30.194;-97.880;2023-04-25T13:12:59;9.10;;;2.90;;
38879;SDS011;25887;30.194;-97.880;2023-04-25T13:15:26;5.50;;;3.20;;
38879;SDS011;25887;30.194;-97.880;2023-04-25T13:17:52;4.88;;;2.83;;
38879;SDS011;25887;30.194;-97.880;2023-04-25T13:20:19;8.27;;;3.20;;
38879;SDS011;25887;30.194;-97.880;2023-04-25T13:22:47;7.05;;;2.90;;
38879;SDS011;25887;30.194;-97.880;2023-04-25T13:25:14;8.32;;;3.13;;
38879;SDS011;25887;30.194;-97.880;2023-04-25T13:27:40;7.13;;;3.22;;
38879;SDS011;25887;30.194;-97.880;2023-04-25T13:30:09;7.78;;;2.90;;
38879;SDS011;25887;30.194;-97.880;2023-04-25T13:32:36;5.13;;;2.67;;
38879;SDS011;25887;30.194;-97.880;2023-04-25T13:35:03;4.78;;;3.33;;
38879;SDS011;25887;30.194;-97.880;2023-04-25T13:37:31;5.60;;;2.70;;
38879;SDS011;25887;30.194;-97.880;2023-04-25T13:40:01;7.03;;;3.38;;
38879;SDS011;25887;30.194;-97.880;2023-04-25T13:42:30;9.93;;;2.58;;
38879;SDS011;25887;30.194;-97.880;2023-04-25T13:44:57;4.72;;;2.35;;
38879;SDS011;25887;30.194;-97.880;2023-04-25T13:47:23;5.70;;;2.55;;
38879;SDS011;25887;30.194;-97.880;2023-04-25T13:49:50;6.35;;;3.08;;
38879;SDS011;25887;30.194;-97.880;2023-04-25T13:52:17;4.45;;;2.85;;
38879;SDS011;25887;30.194;-97.880;2023-04-25T13:54:43;6.50;;;2.90;;
38879;SDS011;25887;30.194;-97.880;2023-04-25T13:57:10;6.25;;;2.50;;
38879;SDS011;25887;30.194;-97.880;2023-04-25T13:59:37;5.43;;;3.00;;
38879;SDS011;25887;30.194;-97.880;2023-04-25T14:02:03;5.53;;;2.47;;
38879;SDS011;25887;30.194;-97.880;2023-04-25T14:04:29;5.95;;;2.63;;
38879;SDS011;25887;30.194;-97.880;2023-04-25T14:06:56;6.35;;;2.72;;
38879;SDS011;25887;30.194;-97.880;2023-04-25T14:09:22;5.20;;;2.70;;
38879;SDS011;25887;30.194;-97.880;2023-04-25T14:11:52;5.93;;;2.03;;
38879;SDS011;25887;30.194;-97.880;2023-04-25T14:14:19;5.53;;;2.53;;
38879;SDS011;25887;30.194;-97.880;2023-04-25T14:16:48;4.45;;;2.65;;
38879;SDS011;25887;30.194;-97.880;2023-04-25T14:19:18;7.63;;;3.03;;
38879;SDS011;25887;30.194;-97.880;2023-04-25T14:21:47;3.70;;;2.47;;
38879;SDS011;25887;30.194;-97.880;2023-04-25T14:24:13;4.75;;;2.90;;
38879;SDS011;25887;30.194;-97.880;2023-04-25T14:26:40;6.30;;;2.67;;
38879;SDS011;25887;30.194;-97.880;2023-04-25T14:29:08;6.35;;;2.72;;
38879;SDS011;25887;30.194;-97.880;2023-04-25T14:31:37;3.20;;;2.17;;
38879;SDS011;25887;30.194;-97.880;2023-04-25T14:34:04;5.50;;;2.60;;
38879;SDS011;25887;30.194;-97.880;2023-04-25T14:36:31;7.72;;;3.40;;
38879;SDS011;25887;30.194;-97.880;2023-04-25T14:38:58;5.32;;;2.63;;
38879;SDS011;25887;30.194;-97.880;2023-04-25T14:41:25;4.20;;;2.65;;
38879;SDS011;25887;30.194;-97.880;2023-04-25T14:43:52;3.95;;;2.75;;